sensor_id;sensor_type;location;lat;lon;timestamp;temperature;humidity
36856;DHT22;22788;51.434;6.786;2023-03-13T00:01:25;8.30;99.90
36856;DHT22;22788;51.434;6.786;2023-03-13T00:03:51;8.20;99.90
36856;DHT22;22788;51.434;6.786;2023-03-13T00:06:19;8.20;99.90
36856;DHT22;22788;51.434;6.786;2023-03-13T00:08:45;8.20;99.90
36856;DHT22;22788;51.434;6.786;2023-03-13T00:11:12;8.20;99.90
36856;DHT22;22788;51.434;6.786;2023-03-13T00:13:38;8.30;99.90
36856;DHT22;22788;51.434;6.786;2023-03-13T00:16:07;8.20;99.90
36856;DHT22;22788;51.434;6.786;2023-03-13T00:18:33;8.20;99.90
36856;DHT22;22788;51.434;6.786;2023-03-13T00:21:00;8.20;99.90
36856;DHT22;22788;51.434;6.786;2023-03-13T00:23:28;8.20;99.90
36856;DHT22;22788;51.434;6.786;2023-03-13T00:25:58;8.10;99.90
36856;DHT22;22788;51.434;6.786;2023-03-13T00:28:26;8.10;99.90
36856;DHT22;22788;51.434;6.786;2023-03-13T00:30:59;8.10;99.90
36856;DHT22;22788;51.434;6.786;2023-03-13T00:33:25;8.20;99.90
36856;DHT22;22788;51.434;6.786;2023-03-13T00:35:51;8.10;99.90
36856;DHT22;22788;51.434;6.786;2023-03-13T00:38:17;8.10;99.90
36856;DHT22;22788;51.434;6.786;2023-03-13T00:40:45;8.20;99.90
36856;DHT22;22788;51.434;6.786;2023-03-13T00:43:11;8.20;99.90
36856;DHT22;22788;51.434;6.786;2023-03-13T00:45:37;8.20;99.90
36856;DHT22;22788;51.434;6.786;2023-03-13T00:48:03;8.20;99.90
36856;DHT22;22788;51.434;6.786;2023-03-13T00:50:29;8.10;99.90
36856;DHT22;22788;51.434;6.786;2023-03-13T00:52:55;8.10;99.90
36856;DHT22;22788;51.434;6.786;2023-03-13T00:55:21;8.20;99.90
36856;DHT22;22788;51.434;6.786;2023-03-13T00:57:49;8.20;99.90
36856;DHT22;22788;51.434;6.786;2023-03-13T01:00:16;8.10;99.90
36856;DHT22;22788;51.434;6.786;2023-03-13T01:02:42;8.10;99.90
36856;DHT22;22788;51.434;6.786;2023-03-13T01:05:09;8.00;99.90
36856;DHT22;22788;51.434;6.786;2023-03-13T01:07:35;8.10;99.90
36856;DHT22;22788;51.434;6.786;2023-03-13T01:10:01;8.10;99.90
36856;DHT22;22788;51.434;6.786;2023-03-13T01:12:27;8.10;99.90
36856;DHT22;22788;51.434;6.786;2023-03-13T01:14:55;7.90;99.90
36856;DHT22;22788;51.434;6.786;2023-03-13T01:17:21;8.00;99.90
36856;DHT22;22788;51.434;6.786;2023-03-13T01:19:47;8.10;99.90
36856;DHT22;22788;51.434;6.786;2023-03-13T01:22:13;8.10;99.90
36856;DHT22;22788;51.434;6.786;2023-03-13T01:24:39;8.10;99.90
36856;DHT22;22788;51.434;6.786;2023-03-13T01:27:05;8.10;99.90
36856;DHT22;22788;51.434;6.786;2023-03-13T01:29:31;8.10;99.90
36856;DHT22;22788;51.434;6.786;2023-03-13T01:31:59;8.00;99.90
36856;DHT22;22788;51.434;6.786;2023-03-13T01:34:25;8.00;99.90
36856;DHT22;22788;51.434;6.786;2023-03-13T01:36:51;8.10;99.90
36856;DHT22;22788;51.434;6.786;2023-03-13T01:39:17;8.10;99.90
36856;DHT22;22788;51.434;6.786;2023-03-13T01:41:43;8.00;99.90
36856;DHT22;22788;51.434;6.786;2023-03-13T01:44:20;8.00;99.90
36856;DHT22;22788;51.434;6.786;2023-03-13T01:46:46;8.00;99.90
36856;DHT22;22788;51.434;6.786;2023-03-13T01:49:16;8.00;99.90
36856;DHT22;22788;51.434;6.786;2023-03-13T01:51:44;8.00;99.90
36856;DHT22;22788;51.434;6.786;2023-03-13T01:54:15;8.00;99.90
36856;DHT22;22788;51.434;6.786;2023-03-13T01:56:45;8.00;99.90
36856;DHT22;22788;51.434;6.786;2023-03-13T01:59:15;8.00;99.90
36856;DHT22;22788;51.434;6.786;2023-03-13T02:01:45;8.00;99.90
36856;DHT22;22788;51.434;6.786;2023-03-13T02:04:13;8.00;99.90
36856;DHT22;22788;51.434;6.786;2023-03-13T02:06:42;8.10;99.90
36856;DHT22;22788;51.434;6.786;2023-03-13T02:09:12;8.20;99.90
36856;DHT22;22788;51.434;6.786;2023-03-13T02:11:46;8.10;99.90
36856;DHT22;22788;51.434;6.786;2023-03-13T02:14:15;8.20;99.90
36856;DHT22;22788;51.434;6.786;2023-03-13T02:16:42;8.10;99.90
36856;DHT22;22788;51.434;6.786;2023-03-13T02:19:18;8.10;99.90
36856;DHT22;22788;51.434;6.786;2023-03-13T02:21:49;8.10;99.90
36856;DHT22;22788;51.434;6.786;2023-03-13T02:24:26;8.10;99.90
36856;DHT22;22788;51.434;6.786;2023-03-13T02:26:56;8.10;99.90
36856;DHT22;22788;51.434;6.786;2023-03-13T02:29:22;8.10;99.90
36856;DHT22;22788;51.434;6.786;2023-03-13T02:31:50;8.20;99.90
36856;DHT22;22788;51.434;6.786;2023-03-13T02:34:19;8.20;99.90
36856;DHT22;22788;51.434;6.786;2023-03-13T02:36:47;8.20;99.90
36856;DHT22;22788;51.434;6.786;2023-03-13T02:39:16;8.20;99.90
36856;DHT22;22788;51.434;6.786;2023-03-13T02:41:44;8.20;99.90
36856;DHT22;22788;51.434;6.786;2023-03-13T02:44:12;8.20;99.90
36856;DHT22;22788;51.434;6.786;2023-03-13T02:46:45;8.20;99.90
36856;DHT22;22788;51.434;6.786;2023-03-13T02:49:23;8.20;99.90
36856;DHT22;22788;51.434;6.786;2023-03-13T02:51:50;8.40;99.90
36856;DHT22;22788;51.434;6.786;2023-03-13T02:54:20;8.30;99.90
36856;DHT22;22788;51.434;6.786;2023-03-13T02:56:49;8.30;99.90
36856;DHT22;22788;51.434;6.786;2023-03-13T02:59:18;8.40;99.90
36856;DHT22;22788;51.434;6.786;2023-03-13T03:01:44;8.40;99.90
36856;DHT22;22788;51.434;6.786;2023-03-13T03:04:10;8.40;99.90
36856;DHT22;22788;51.434;6.786;2023-03-13T03:06:36;8.40;99.90
36856;DHT22;22788;51.434;6.786;2023-03-13T03:09:03;8.40;99.90
36856;DHT22;22788;51.434;6.786;2023-03-13T03:11:29;8.40;99.90
36856;DHT22;22788;51.434;6.786;2023-03-13T03:13:55;8.40;99.90
36856;DHT22;22788;51.434;6.786;2023-03-13T03:16:22;8.40;99.90
36856;DHT22;22788;51.434;6.786;2023-03-13T03:18:48;8.40;99.90
36856;DHT22;22788;51.434;6.786;2023-03-13T03:21:14;8.40;99.90
36856;DHT22;22788;51.434;6.786;2023-03-13T03:23:40;8.40;99.90
36856;DHT22;22788;51.434;6.786;2023-03-13T03:26:07;8.40;99.90
36856;DHT22;22788;51.434;6.786;2023-03-13T03:28:33;8.40;99.90
36856;DHT22;22788;51.434;6.786;2023-03-13T03:31:03;8.40;99.90
36856;DHT22;22788;51.434;6.786;2023-03-13T03:33:30;8.40;99.90
36856;DHT22;22788;51.434;6.786;2023-03-13T03:35:58;8.50;99.90
36856;DHT22;22788;51.434;6.786;2023-03-13T03:38:24;8.60;99.90
36856;DHT22;22788;51.434;6.786;2023-03-13T03:40:50;8.60;99.90
36856;DHT22;22788;51.434;6.786;2023-03-13T03:43:17;8.50;99.90
36856;DHT22;22788;51.434;6.786;2023-03-13T03:45:43;8.50;99.90
36856;DHT22;22788;51.434;6.786;2023-03-13T03:48:09;8.50;99.90
36856;DHT22;22788;51.434;6.786;2023-03-13T03:50:36;8.50;99.90
36856;DHT22;22788;51.434;6.786;2023-03-13T03:53:02;8.90;99.90
36856;DHT22;22788;51.434;6.786;2023-03-13T03:55:28;8.60;99.90
36856;DHT22;22788;51.434;6.786;2023-03-13T03:57:54;8.70;99.90
36856;DHT22;22788;51.434;6.786;2023-03-13T04:00:20;8.60;99.90
36856;DHT22;22788;51.434;6.786;2023-03-13T04:02:46;8.60;99.90
36856;DHT22;22788;51.434;6.786;2023-03-13T04:05:13;8.60;99.90
36856;DHT22;22788;51.434;6.786;2023-03-13T04:07:40;8.80;99.90
36856;DHT22;22788;51.434;6.786;2023-03-13T04:10:07;8.80;99.90
36856;DHT22;22788;51.434;6.786;2023-03-13T04:12:34;8.80;99.90
36856;DHT22;22788;51.434;6.786;2023-03-13T04:15:00;8.70;99.90
36856;DHT22;22788;51.434;6.786;2023-03-13T04:17:26;8.70;99.90
36856;DHT22;22788;51.434;6.786;2023-03-13T04:19:52;8.80;99.90
36856;DHT22;22788;51.434;6.786;2023-03-13T04:22:18;8.70;99.90
36856;DHT22;22788;51.434;6.786;2023-03-13T04:24:45;8.70;99.90
36856;DHT22;22788;51.434;6.786;2023-03-13T04:27:11;8.80;99.90
36856;DHT22;22788;51.434;6.786;2023-03-13T04:29:37;8.80;99.90
36856;DHT22;22788;51.434;6.786;2023-03-13T04:32:04;8.80;99.90
36856;DHT22;22788;51.434;6.786;2023-03-13T04:34:30;8.90;99.90
36856;DHT22;22788;51.434;6.786;2023-03-13T04:36:56;8.90;99.90
36856;DHT22;22788;51.434;6.786;2023-03-13T04:39:23;8.80;99.90
36856;DHT22;22788;51.434;6.786;2023-03-13T04:41:50;8.90;99.90
36856;DHT22;22788;51.434;6.786;2023-03-13T04:44:16;9.00;99.90
36856;DHT22;22788;51.434;6.786;2023-03-13T04:46:42;9.00;99.90
36856;DHT22;22788;51.434;6.786;2023-03-13T04:49:08;9.00;99.90
36856;DHT22;22788;51.434;6.786;2023-03-13T04:51:34;9.10;99.90
36856;DHT22;22788;51.434;6.786;2023-03-13T04:54:00;9.20;99.90
36856;DHT22;22788;51.434;6.786;2023-03-13T04:56:27;9.30;99.90
36856;DHT22;22788;51.434;6.786;2023-03-13T04:58:54;9.30;99.90
36856;DHT22;22788;51.434;6.786;2023-03-13T05:01:20;9.30;99.90
36856;DHT22;22788;51.434;6.786;2023-03-13T05:03:46;9.30;99.90
36856;DHT22;22788;51.434;6.786;2023-03-13T05:06:12;9.40;99.90
36856;DHT22;22788;51.434;6.786;2023-03-13T05:08:38;9.40;99.90
36856;DHT22;22788;51.434;6.786;2023-03-13T05:11:05;9.50;99.90
36856;DHT22;22788;51.434;6.786;2023-03-13T05:13:31;9.50;99.90
36856;DHT22;22788;51.434;6.786;2023-03-13T05:15:58;9.40;99.90
36856;DHT22;22788;51.434;6.786;2023-03-13T05:18:24;9.60;99.90
36856;DHT22;22788;51.434;6.786;2023-03-13T05:20:51;9.50;99.90
36856;DHT22;22788;51.434;6.786;2023-03-13T05:23:17;9.50;99.90
36856;DHT22;22788;51.434;6.786;2023-03-13T05:25:43;9.60;99.90
36856;DHT22;22788;51.434;6.786;2023-03-13T05:28:09;9.50;99.90
36856;DHT22;22788;51.434;6.786;2023-03-13T05:30:35;9.40;99.90
36856;DHT22;22788;51.434;6.786;2023-03-13T05:33:03;9.50;99.90
36856;DHT22;22788;51.434;6.786;2023-03-13T05:35:29;9.50;99.90
36856;DHT22;22788;51.434;6.786;2023-03-13T05:37:55;9.70;99.90
36856;DHT22;22788;51.434;6.786;2023-03-13T05:40:21;9.40;99.90
36856;DHT22;22788;51.434;6.786;2023-03-13T05:42:47;9.50;99.90
36856;DHT22;22788;51.434;6.786;2023-03-13T05:45:13;9.50;99.90
36856;DHT22;22788;51.434;6.786;2023-03-13T05:47:39;9.60;99.90
36856;DHT22;22788;51.434;6.786;2023-03-13T05:50:08;9.40;99.90
36856;DHT22;22788;51.434;6.786;2023-03-13T05:52:34;9.60;99.90
36856;DHT22;22788;51.434;6.786;2023-03-13T05:55:00;9.50;99.90
36856;DHT22;22788;51.434;6.786;2023-03-13T05:57:26;9.50;99.90
36856;DHT22;22788;51.434;6.786;2023-03-13T05:59:53;9.60;99.90
36856;DHT22;22788;51.434;6.786;2023-03-13T06:02:19;9.60;99.90
36856;DHT22;22788;51.434;6.786;2023-03-13T06:04:45;9.40;99.90
36856;DHT22;22788;51.434;6.786;2023-03-13T06:07:12;9.60;99.90
36856;DHT22;22788;51.434;6.786;2023-03-13T06:09:38;9.70;99.90
36856;DHT22;22788;51.434;6.786;2023-03-13T06:12:05;9.60;99.90
36856;DHT22;22788;51.434;6.786;2023-03-13T06:14:31;9.60;99.90
36856;DHT22;22788;51.434;6.786;2023-03-13T06:16:57;9.70;99.90
36856;DHT22;22788;51.434;6.786;2023-03-13T06:19:23;9.60;99.90
36856;DHT22;22788;51.434;6.786;2023-03-13T06:21:49;9.70;99.90
36856;DHT22;22788;51.434;6.786;2023-03-13T06:24:17;9.80;99.90
36856;DHT22;22788;51.434;6.786;2023-03-13T06:26:43;9.90;99.90
36856;DHT22;22788;51.434;6.786;2023-03-13T06:29:10;9.80;99.90
36856;DHT22;22788;51.434;6.786;2023-03-13T06:31:36;9.70;99.90
36856;DHT22;22788;51.434;6.786;2023-03-13T06:34:02;9.80;99.90
36856;DHT22;22788;51.434;6.786;2023-03-13T06:36:28;9.90;99.90
36856;DHT22;22788;51.434;6.786;2023-03-13T06:38:54;9.70;99.90
36856;DHT22;22788;51.434;6.786;2023-03-13T06:41:21;9.70;99.90
36856;DHT22;22788;51.434;6.786;2023-03-13T06:43:47;9.80;99.90
36856;DHT22;22788;51.434;6.786;2023-03-13T06:46:16;9.80;99.90
36856;DHT22;22788;51.434;6.786;2023-03-13T06:48:43;9.70;99.90
36856;DHT22;22788;51.434;6.786;2023-03-13T06:58:30;9.90;99.90
36856;DHT22;22788;51.434;6.786;2023-03-13T07:00:56;9.90;99.90
36856;DHT22;22788;51.434;6.786;2023-03-13T07:03:22;10.00;99.90
36856;DHT22;22788;51.434;6.786;2023-03-13T07:05:54;10.00;99.90
36856;DHT22;22788;51.434;6.786;2023-03-13T07:08:20;10.00;99.90
36856;DHT22;22788;51.434;6.786;2023-03-13T07:10:46;10.00;99.90
36856;DHT22;22788;51.434;6.786;2023-03-13T07:13:12;10.20;99.90
36856;DHT22;22788;51.434;6.786;2023-03-13T07:18:06;10.70;99.90
36856;DHT22;22788;51.434;6.786;2023-03-13T07:20:32;10.50;99.90
36856;DHT22;22788;51.434;6.786;2023-03-13T07:22:58;10.50;99.90
36856;DHT22;22788;51.434;6.786;2023-03-13T07:25:24;10.50;99.90
36856;DHT22;22788;51.434;6.786;2023-03-13T07:27:51;10.60;99.90
36856;DHT22;22788;51.434;6.786;2023-03-13T07:30:17;10.80;99.90
36856;DHT22;22788;51.434;6.786;2023-03-13T07:32:44;10.70;99.90
36856;DHT22;22788;51.434;6.786;2023-03-13T07:35:11;10.60;99.90
36856;DHT22;22788;51.434;6.786;2023-03-13T07:37:37;10.40;99.90
36856;DHT22;22788;51.434;6.786;2023-03-13T07:40:03;10.50;99.90
36856;DHT22;22788;51.434;6.786;2023-03-13T07:42:29;10.50;99.90
36856;DHT22;22788;51.434;6.786;2023-03-13T07:44:55;10.40;99.90
36856;DHT22;22788;51.434;6.786;2023-03-13T07:47:21;10.40;99.90
36856;DHT22;22788;51.434;6.786;2023-03-13T07:49:49;10.70;99.90
36856;DHT22;22788;51.434;6.786;2023-03-13T07:52:15;10.40;99.90
36856;DHT22;22788;51.434;6.786;2023-03-13T07:54:41;10.50;99.90
36856;DHT22;22788;51.434;6.786;2023-03-13T07:57:07;10.50;99.90
36856;DHT22;22788;51.434;6.786;2023-03-13T07:59:33;10.50;99.90
36856;DHT22;22788;51.434;6.786;2023-03-13T08:01:59;10.60;99.90
36856;DHT22;22788;51.434;6.786;2023-03-13T08:04:25;10.70;99.90
36856;DHT22;22788;51.434;6.786;2023-03-13T08:06:52;10.70;99.90
36856;DHT22;22788;51.434;6.786;2023-03-13T08:09:18;10.70;99.90
36856;DHT22;22788;51.434;6.786;2023-03-13T08:11:44;10.60;99.90
36856;DHT22;22788;51.434;6.786;2023-03-13T08:14:11;10.60;99.90
36856;DHT22;22788;51.434;6.786;2023-03-13T08:16:37;10.60;99.90
36856;DHT22;22788;51.434;6.786;2023-03-13T08:19:03;10.60;99.90
36856;DHT22;22788;51.434;6.786;2023-03-13T08:21:31;10.50;99.90
36856;DHT22;22788;51.434;6.786;2023-03-13T08:24:00;10.60;99.90
36856;DHT22;22788;51.434;6.786;2023-03-13T08:26:28;10.70;99.90
36856;DHT22;22788;51.434;6.786;2023-03-13T08:28:56;10.80;99.90
36856;DHT22;22788;51.434;6.786;2023-03-13T08:31:23;10.80;99.90
36856;DHT22;22788;51.434;6.786;2023-03-13T08:33:50;10.80;99.90
36856;DHT22;22788;51.434;6.786;2023-03-13T08:36:18;10.70;99.90
36856;DHT22;22788;51.434;6.786;2023-03-13T08:38:46;10.70;99.90
36856;DHT22;22788;51.434;6.786;2023-03-13T08:41:15;10.80;99.90
36856;DHT22;22788;51.434;6.786;2023-03-13T08:43:42;10.80;99.90
36856;DHT22;22788;51.434;6.786;2023-03-13T08:46:08;10.90;99.90
36856;DHT22;22788;51.434;6.786;2023-03-13T08:48:34;10.80;99.90
36856;DHT22;22788;51.434;6.786;2023-03-13T08:51:01;10.70;99.90
36856;DHT22;22788;51.434;6.786;2023-03-13T08:53:28;10.80;99.90
36856;DHT22;22788;51.434;6.786;2023-03-13T08:55:54;10.80;99.90
36856;DHT22;22788;51.434;6.786;2023-03-13T08:58:21;10.80;99.90
36856;DHT22;22788;51.434;6.786;2023-03-13T09:00:47;11.00;99.90
36856;DHT22;22788;51.434;6.786;2023-03-13T09:03:13;10.80;99.90
36856;DHT22;22788;51.434;6.786;2023-03-13T09:05:39;10.90;99.90
36856;DHT22;22788;51.434;6.786;2023-03-13T09:08:06;10.90;99.90
36856;DHT22;22788;51.434;6.786;2023-03-13T09:10:32;10.90;99.90
36856;DHT22;22788;51.434;6.786;2023-03-13T09:12:58;11.00;99.90
36856;DHT22;22788;51.434;6.786;2023-03-13T09:15:25;11.10;99.90
36856;DHT22;22788;51.434;6.786;2023-03-13T09:17:51;11.00;99.90
36856;DHT22;22788;51.434;6.786;2023-03-13T09:20:18;11.00;99.90
36856;DHT22;22788;51.434;6.786;2023-03-13T09:22:44;11.10;99.90
36856;DHT22;22788;51.434;6.786;2023-03-13T09:25:10;11.10;99.90
36856;DHT22;22788;51.434;6.786;2023-03-13T09:27:37;11.20;99.90
36856;DHT22;22788;51.434;6.786;2023-03-13T09:30:03;11.20;99.90
36856;DHT22;22788;51.434;6.786;2023-03-13T09:32:31;11.20;99.90
36856;DHT22;22788;51.434;6.786;2023-03-13T09:34:57;11.10;99.90
36856;DHT22;22788;51.434;6.786;2023-03-13T09:37:23;11.20;99.90
36856;DHT22;22788;51.434;6.786;2023-03-13T09:39:49;11.30;99.90
36856;DHT22;22788;51.434;6.786;2023-03-13T09:42:17;11.20;99.90
36856;DHT22;22788;51.434;6.786;2023-03-13T09:44:48;11.10;99.90
36856;DHT22;22788;51.434;6.786;2023-03-13T09:47:20;11.10;99.90
36856;DHT22;22788;51.434;6.786;2023-03-13T09:49:52;11.20;99.90
36856;DHT22;22788;51.434;6.786;2023-03-13T09:52:22;11.20;99.90
36856;DHT22;22788;51.434;6.786;2023-03-13T09:54:51;11.10;99.90
36856;DHT22;22788;51.434;6.786;2023-03-13T09:57:24;10.90;99.90
36856;DHT22;22788;51.434;6.786;2023-03-13T09:59:57;11.10;99.90
36856;DHT22;22788;51.434;6.786;2023-03-13T10:02:30;11.20;99.90
36856;DHT22;22788;51.434;6.786;2023-03-13T10:05:08;11.10;99.90
36856;DHT22;22788;51.434;6.786;2023-03-13T10:07:35;11.10;99.90
36856;DHT22;22788;51.434;6.786;2023-03-13T10:10:03;11.40;99.90
36856;DHT22;22788;51.434;6.786;2023-03-13T10:12:37;11.30;99.90
36856;DHT22;22788;51.434;6.786;2023-03-13T10:20:20;11.40;99.90
36856;DHT22;22788;51.434;6.786;2023-03-13T10:22:47;11.40;99.90
36856;DHT22;22788;51.434;6.786;2023-03-13T10:25:23;11.50;99.90
36856;DHT22;22788;51.434;6.786;2023-03-13T10:27:52;11.50;99.90
36856;DHT22;22788;51.434;6.786;2023-03-13T10:30:22;11.70;99.90
36856;DHT22;22788;51.434;6.786;2023-03-13T10:32:49;11.70;99.90
36856;DHT22;22788;51.434;6.786;2023-03-13T10:35:22;11.70;99.90
36856;DHT22;22788;51.434;6.786;2023-03-13T10:37:48;11.60;99.90
36856;DHT22;22788;51.434;6.786;2023-03-13T10:40:20;11.70;99.90
36856;DHT22;22788;51.434;6.786;2023-03-13T10:42:46;11.70;99.90
36856;DHT22;22788;51.434;6.786;2023-03-13T10:45:15;11.70;99.90
36856;DHT22;22788;51.434;6.786;2023-03-13T10:47:42;11.80;99.90
36856;DHT22;22788;51.434;6.786;2023-03-13T10:50:16;11.80;99.90
36856;DHT22;22788;51.434;6.786;2023-03-13T10:52:45;11.80;99.90
36856;DHT22;22788;51.434;6.786;2023-03-13T10:55:15;11.70;99.90
36856;DHT22;22788;51.434;6.786;2023-03-13T10:57:49;11.80;99.90
36856;DHT22;22788;51.434;6.786;2023-03-13T11:00:29;11.90;99.90
36856;DHT22;22788;51.434;6.786;2023-03-13T11:02:56;11.90;99.90
36856;DHT22;22788;51.434;6.786;2023-03-13T11:05:36;11.80;99.90
36856;DHT22;22788;51.434;6.786;2023-03-13T11:08:19;11.90;99.90
36856;DHT22;22788;51.434;6.786;2023-03-13T11:10:51;12.00;99.90
36856;DHT22;22788;51.434;6.786;2023-03-13T11:13:32;12.00;99.90
36856;DHT22;22788;51.434;6.786;2023-03-13T11:16:03;12.10;99.90
36856;DHT22;22788;51.434;6.786;2023-03-13T11:18:36;12.10;99.90
36856;DHT22;22788;51.434;6.786;2023-03-13T11:21:12;12.10;99.90
36856;DHT22;22788;51.434;6.786;2023-03-13T11:23:48;12.00;99.90
36856;DHT22;22788;51.434;6.786;2023-03-13T11:26:21;12.10;99.90
36856;DHT22;22788;51.434;6.786;2023-03-13T11:28:54;12.20;99.90
36856;DHT22;22788;51.434;6.786;2023-03-13T11:31:24;12.40;99.90
36856;DHT22;22788;51.434;6.786;2023-03-13T11:33:56;12.40;99.90
36856;DHT22;22788;51.434;6.786;2023-03-13T11:36:30;12.50;99.90
36856;DHT22;22788;51.434;6.786;2023-03-13T11:39:05;12.60;99.90
36856;DHT22;22788;51.434;6.786;2023-03-13T11:41:48;12.50;99.90
36856;DHT22;22788;51.434;6.786;2023-03-13T11:44:26;12.60;99.90
36856;DHT22;22788;51.434;6.786;2023-03-13T11:47:01;12.50;99.90
36856;DHT22;22788;51.434;6.786;2023-03-13T11:49:38;12.40;99.90
36856;DHT22;22788;51.434;6.786;2023-03-13T11:52:17;12.50;99.90
36856;DHT22;22788;51.434;6.786;2023-03-13T11:55:15;12.40;99.90
36856;DHT22;22788;51.434;6.786;2023-03-13T11:57:49;12.50;99.90
36856;DHT22;22788;51.434;6.786;2023-03-13T12:00:28;12.70;99.90
36856;DHT22;22788;51.434;6.786;2023-03-13T12:02:58;12.70;99.90
36856;DHT22;22788;51.434;6.786;2023-03-13T12:05:27;12.70;99.90
36856;DHT22;22788;51.434;6.786;2023-03-13T12:07:59;12.90;99.90
36856;DHT22;22788;51.434;6.786;2023-03-13T12:10:31;12.90;99.90
36856;DHT22;22788;51.434;6.786;2023-03-13T12:13:03;12.90;99.90
36856;DHT22;22788;51.434;6.786;2023-03-13T12:15:33;13.10;99.90
36856;DHT22;22788;51.434;6.786;2023-03-13T12:18:04;13.00;99.90
36856;DHT22;22788;51.434;6.786;2023-03-13T12:20:39;13.20;99.90
36856;DHT22;22788;51.434;6.786;2023-03-13T12:23:16;13.30;99.90
36856;DHT22;22788;51.434;6.786;2023-03-13T12:25:48;13.40;99.90
36856;DHT22;22788;51.434;6.786;2023-03-13T12:28:23;13.40;99.90
36856;DHT22;22788;51.434;6.786;2023-03-13T12:30:55;13.20;99.90
36856;DHT22;22788;51.434;6.786;2023-03-13T12:33:25;12.90;99.90
36856;DHT22;22788;51.434;6.786;2023-03-13T12:36:02;12.90;99.90
36856;DHT22;22788;51.434;6.786;2023-03-13T12:38:33;12.90;99.90
36856;DHT22;22788;51.434;6.786;2023-03-13T12:41:10;12.70;99.90
36856;DHT22;22788;51.434;6.786;2023-03-13T12:43:39;12.80;99.90
36856;DHT22;22788;51.434;6.786;2023-03-13T12:46:18;12.90;99.90
36856;DHT22;22788;51.434;6.786;2023-03-13T12:52:09;13.10;99.90
36856;DHT22;22788;51.434;6.786;2023-03-13T12:54:47;13.10;99.90
36856;DHT22;22788;51.434;6.786;2023-03-13T13:00:18;12.70;99.90
36856;DHT22;22788;51.434;6.786;2023-03-13T13:02:45;12.80;99.90
36856;DHT22;22788;51.434;6.786;2023-03-13T13:05:18;13.00;99.90
36856;DHT22;22788;51.434;6.786;2023-03-13T13:07:52;12.90;99.90
36856;DHT22;22788;51.434;6.786;2023-03-13T13:38:50;13.40;99.90
36856;DHT22;22788;51.434;6.786;2023-03-13T13:41:26;13.40;99.90
36856;DHT22;22788;51.434;6.786;2023-03-13T14:40:05;13.50;99.90
36856;DHT22;22788;51.434;6.786;2023-03-13T14:42:37;13.70;99.90
36856;DHT22;22788;51.434;6.786;2023-03-13T14:45:12;13.30;99.90
36856;DHT22;22788;51.434;6.786;2023-03-13T15:15:24;13.30;99.90
36856;DHT22;22788;51.434;6.786;2023-03-13T15:20:17;13.50;99.90
36856;DHT22;22788;51.434;6.786;2023-03-13T15:22:44;13.30;99.90
36856;DHT22;22788;51.434;6.786;2023-03-13T15:25:16;13.40;99.90
36856;DHT22;22788;51.434;6.786;2023-03-13T15:27:42;13.40;99.90
36856;DHT22;22788;51.434;6.786;2023-03-13T15:30:12;13.40;99.90
36856;DHT22;22788;51.434;6.786;2023-03-13T15:32:39;13.40;99.90
36856;DHT22;22788;51.434;6.786;2023-03-13T15:35:21;13.50;99.90
36856;DHT22;22788;51.434;6.786;2023-03-13T15:37:47;13.50;99.90
36856;DHT22;22788;51.434;6.786;2023-03-13T15:40:16;13.40;99.90
36856;DHT22;22788;51.434;6.786;2023-03-13T15:42:42;13.40;99.90
36856;DHT22;22788;51.434;6.786;2023-03-13T15:45:09;13.40;99.90
36856;DHT22;22788;51.434;6.786;2023-03-13T15:47:35;13.40;99.90
36856;DHT22;22788;51.434;6.786;2023-03-13T15:50:01;13.20;99.90
36856;DHT22;22788;51.434;6.786;2023-03-13T15:52:28;13.30;99.90
36856;DHT22;22788;51.434;6.786;2023-03-13T15:54:54;13.30;99.90
36856;DHT22;22788;51.434;6.786;2023-03-13T15:57:22;13.30;99.90
36856;DHT22;22788;51.434;6.786;2023-03-13T15:59:50;13.20;99.90
36856;DHT22;22788;51.434;6.786;2023-03-13T16:02:18;13.20;99.90
36856;DHT22;22788;51.434;6.786;2023-03-13T16:04:44;13.30;99.90
36856;DHT22;22788;51.434;6.786;2023-03-13T16:07:11;13.30;99.90
36856;DHT22;22788;51.434;6.786;2023-03-13T16:09:38;13.30;99.90
36856;DHT22;22788;51.434;6.786;2023-03-13T16:12:04;13.20;99.90
36856;DHT22;22788;51.434;6.786;2023-03-13T16:14:32;13.10;99.90
36856;DHT22;22788;51.434;6.786;2023-03-13T16:16:58;13.00;99.90
36856;DHT22;22788;51.434;6.786;2023-03-13T16:19:24;12.90;99.90
36856;DHT22;22788;51.434;6.786;2023-03-13T16:21:50;13.00;99.90
36856;DHT22;22788;51.434;6.786;2023-03-13T16:24:16;13.00;99.90
36856;DHT22;22788;51.434;6.786;2023-03-13T16:26:42;13.00;99.90
36856;DHT22;22788;51.434;6.786;2023-03-13T16:29:09;12.90;99.90
36856;DHT22;22788;51.434;6.786;2023-03-13T16:31:37;12.90;99.90
36856;DHT22;22788;51.434;6.786;2023-03-13T16:34:03;12.90;99.90
36856;DHT22;22788;51.434;6.786;2023-03-13T16:36:30;12.80;99.90
36856;DHT22;22788;51.434;6.786;2023-03-13T16:38:57;12.90;99.90
36856;DHT22;22788;51.434;6.786;2023-03-13T16:41:25;12.90;99.90
36856;DHT22;22788;51.434;6.786;2023-03-13T16:43:55;12.90;99.90
36856;DHT22;22788;51.434;6.786;2023-03-13T16:46:22;12.80;99.90
36856;DHT22;22788;51.434;6.786;2023-03-13T16:48:50;12.90;99.90
36856;DHT22;22788;51.434;6.786;2023-03-13T16:51:18;12.70;99.90
36856;DHT22;22788;51.434;6.786;2023-03-13T16:53:46;12.80;99.90
36856;DHT22;22788;51.434;6.786;2023-03-13T16:56:17;12.70;99.90
36856;DHT22;22788;51.434;6.786;2023-03-13T16:58:45;12.80;99.90
36856;DHT22;22788;51.434;6.786;2023-03-13T17:01:11;12.80;99.90
36856;DHT22;22788;51.434;6.786;2023-03-13T17:03:37;12.70;99.90
36856;DHT22;22788;51.434;6.786;2023-03-13T17:06:05;13.20;99.90
36856;DHT22;22788;51.434;6.786;2023-03-13T17:08:31;12.60;99.90
36856;DHT22;22788;51.434;6.786;2023-03-13T17:10:57;12.70;99.90
36856;DHT22;22788;51.434;6.786;2023-03-13T17:13:23;12.70;99.90
36856;DHT22;22788;51.434;6.786;2023-03-13T17:15:52;12.60;99.90
36856;DHT22;22788;51.434;6.786;2023-03-13T17:18:21;12.80;99.90
36856;DHT22;22788;51.434;6.786;2023-03-13T17:20:47;13.00;99.90
36856;DHT22;22788;51.434;6.786;2023-03-13T17:23:14;13.00;99.90
36856;DHT22;22788;51.434;6.786;2023-03-13T17:25:40;12.90;99.90
36856;DHT22;22788;51.434;6.786;2023-03-13T17:28:11;12.80;99.90
36856;DHT22;22788;51.434;6.786;2023-03-13T17:30:37;12.80;99.90
36856;DHT22;22788;51.434;6.786;2023-03-13T17:33:03;12.70;99.90
36856;DHT22;22788;51.434;6.786;2023-03-13T17:35:29;12.70;99.90
36856;DHT22;22788;51.434;6.786;2023-03-13T17:37:55;12.70;99.90
36856;DHT22;22788;51.434;6.786;2023-03-13T17:40:24;12.70;99.90
36856;DHT22;22788;51.434;6.786;2023-03-13T17:42:51;12.60;99.90
36856;DHT22;22788;51.434;6.786;2023-03-13T17:45:17;12.50;99.90
36856;DHT22;22788;51.434;6.786;2023-03-13T17:47:44;12.60;99.90
36856;DHT22;22788;51.434;6.786;2023-03-13T17:50:15;12.50;99.90
36856;DHT22;22788;51.434;6.786;2023-03-13T17:52:41;12.50;99.90
36856;DHT22;22788;51.434;6.786;2023-03-13T17:55:08;12.50;99.90
36856;DHT22;22788;51.434;6.786;2023-03-13T17:57:36;12.50;99.90
36856;DHT22;22788;51.434;6.786;2023-03-13T18:00:03;12.40;99.90